createdAt,value
2019-04-22T00:00:28.950Z,28.93
2019-04-22T00:02:58.124Z,29.17
2019-04-22T00:05:44.384Z,28.98
2019-04-22T00:08:16.734Z,27.87
2019-04-22T00:10:54.209Z,29.37
2019-04-22T00:13:25.994Z,29.15
2019-04-22T00:15:53.870Z,29.37
2019-04-22T00:18:30.460Z,29.80
2019-04-22T00:20:58.395Z,28.23
2019-04-22T00:23:24.554Z,30.48
2019-04-22T00:26:01.978Z,28.80
2019-04-22T00:28:32.127Z,31.20
2019-04-22T00:31:03.866Z,31.07
2019-04-22T00:33:31.243Z,29.77
2019-04-22T00:36:08.899Z,31.60
2019-04-22T00:38:42.495Z,33.13
2019-04-22T00:41:13.157Z,33.02
2019-04-22T00:43:39.553Z,32.00
2019-04-22T00:46:15.627Z,31.93
2019-04-22T00:48:48.619Z,34.27
2019-04-22T00:51:13.900Z,32.67
2019-04-22T00:53:42.867Z,32.27
2019-04-22T00:56:32.617Z,33.37
2019-04-22T00:59:06.793Z,34.08
2019-04-22T01:01:37.133Z,34.43
2019-04-22T01:04:14.327Z,33.15
2019-04-22T01:06:47.312Z,34.77
2019-04-22T01:09:18.876Z,36.47
2019-04-22T01:11:44.925Z,37.42
2019-04-22T01:14:21.995Z,37.03
2019-04-22T01:16:53.811Z,36.03
2019-04-22T01:19:21.579Z,36.40
2019-04-22T01:21:52.317Z,37.47
2019-04-22T01:24:25.225Z,36.20
2019-04-22T01:26:49.507Z,37.63
2019-04-22T01:29:14.634Z,38.23
2019-04-22T01:31:40.027Z,38.70
2019-04-22T01:34:23.403Z,37.40
2019-04-22T01:36:59.423Z,36.08
2019-04-22T01:39:37.616Z,35.73
2019-04-22T01:44:42.187Z,35.70
2019-04-22T01:47:12.827Z,35.30
2019-04-22T01:49:44.137Z,36.17
2019-04-22T01:52:11.456Z,34.80
2019-04-22T01:57:09.898Z,34.33
2019-04-22T01:59:41.614Z,33.33
2019-04-22T02:02:18.934Z,32.73
2019-04-22T02:05:07.325Z,33.67
2019-04-22T02:09:49.602Z,32.33
2019-04-22T02:12:20.005Z,32.77
2019-04-22T02:14:52.308Z,32.15
2019-04-22T02:17:26.490Z,32.33
2019-04-22T02:22:29.147Z,31.97
2019-04-22T02:24:59.043Z,30.50
2019-04-22T02:27:34.670Z,31.90
2019-04-22T02:29:52.215Z,32.87
2019-04-22T02:35:03.739Z,29.97
2019-04-22T02:37:27.793Z,31.77
2019-04-22T02:42:43.540Z,29.13
2019-04-22T02:45:07.116Z,29.20
2019-04-22T02:47:42.239Z,29.40
2019-04-22T02:50:07.397Z,28.57
2019-04-22T02:52:37.959Z,28.12
2019-04-22T02:55:21.041Z,28.63
2019-04-22T02:57:45.070Z,29.70
2019-04-22T03:00:27.247Z,29.07
2019-04-22T03:03:04.168Z,28.87
2019-04-22T03:05:27.994Z,27.97
2019-04-22T03:08:00.400Z,28.10
2019-04-22T03:10:32.699Z,27.37
2019-04-22T03:12:55.930Z,29.23
2019-04-22T03:15:27.784Z,27.97
2019-04-22T03:18:01.316Z,28.13
2019-04-22T03:20:41.559Z,27.27
2019-04-22T03:23:05.857Z,26.80
2019-04-22T03:28:05.657Z,27.65
2019-04-22T03:33:12.270Z,27.40
2019-04-22T03:38:04.903Z,26.03
2019-04-22T03:40:44.716Z,25.93
2019-04-22T03:48:09.307Z,21.77
2019-04-22T03:50:39.087Z,20.52
2019-04-22T03:53:32.659Z,21.43
2019-04-22T03:55:59.778Z,21.30
2019-04-22T03:58:21.855Z,21.10
2019-04-22T04:00:55.520Z,21.37
2019-04-22T04:03:55.239Z,20.73
2019-04-22T04:06:00.190Z,19.27
2019-04-22T04:08:38.890Z,17.53
2019-04-22T04:13:34.350Z,18.27
2019-04-22T04:16:07.887Z,18.80
2019-04-22T04:18:39.603Z,16.67
2019-04-22T04:26:19.574Z,17.13
2019-04-22T04:31:17.687Z,17.40
2019-04-22T04:33:38.199Z,17.60
2019-04-22T04:41:23.146Z,15.93
2019-04-22T04:46:32.245Z,17.60
2019-04-22T04:49:08.940Z,15.27
2019-04-22T04:53:58.158Z,17.03
2019-04-22T04:56:34.429Z,16.07
2019-04-22T04:59:05.714Z,15.73
2019-04-22T05:04:05.039Z,15.53
2019-04-22T05:06:33.117Z,16.37
2019-04-22T05:11:37.275Z,16.03
2019-04-22T05:16:46.455Z,15.40
2019-04-22T05:24:15.057Z,14.53
2019-04-22T05:26:37.477Z,14.80
2019-04-22T05:29:05.482Z,14.73
2019-04-22T05:31:37.210Z,14.10
2019-04-22T05:34:08.189Z,14.60
2019-04-22T05:36:42.575Z,13.97
2019-04-22T05:41:41.427Z,14.13
2019-04-22T05:46:45.679Z,13.13
2019-04-22T05:49:25.749Z,12.93
2019-04-22T05:51:42.051Z,12.90
2019-04-22T05:54:17.259Z,12.97
2019-04-22T05:56:41.250Z,13.77
2019-04-22T06:01:54.471Z,14.40
2019-04-22T06:04:19.815Z,13.60
2019-04-22T06:06:39.987Z,12.80
2019-04-22T06:09:14.754Z,13.13
2019-04-22T06:11:36.261Z,12.90
2019-04-22T06:14:20.426Z,13.57
2019-04-22T06:16:59.183Z,13.30
2019-04-22T06:19:37.990Z,12.93
2019-04-22T06:21:56.015Z,12.40
2019-04-22T06:24:27.604Z,12.87
2019-04-22T06:27:10.224Z,12.53
2019-04-22T06:29:33.490Z,12.40
2019-04-22T06:32:26.493Z,12.18
2019-04-22T06:34:42.251Z,13.53
2019-04-22T06:37:13.412Z,11.97
2019-04-22T06:39:36.947Z,12.10
2019-04-22T06:42:19.539Z,12.33
2019-04-22T06:44:43.082Z,11.37
2019-04-22T06:47:14.590Z,11.63
2019-04-22T06:49:41.949Z,12.05
2019-04-22T06:52:17.746Z,12.25
2019-04-22T06:54:59.574Z,10.80
2019-04-22T06:57:13.834Z,11.57
2019-04-22T06:59:45.121Z,11.70
2019-04-22T07:02:16.555Z,11.10
2019-04-22T07:04:55.156Z,11.43
2019-04-22T07:07:17.092Z,11.20
2019-04-22T07:09:48.581Z,11.03
2019-04-22T07:14:48.866Z,10.82
2019-04-22T07:17:22.156Z,10.88
2019-04-22T07:19:47.210Z,10.80
2019-04-22T07:22:25.451Z,10.72
2019-04-22T07:24:55.904Z,10.57
2019-04-22T07:27:22.181Z,9.23
2019-04-22T07:30:01.914Z,9.78
2019-04-22T07:32:53.795Z,10.90
2019-04-22T07:35:10.633Z,9.83
2019-04-22T07:40:06.895Z,10.27
2019-04-22T07:42:40.723Z,9.13
2019-04-22T07:45:23.730Z,8.70
2019-04-22T07:47:44.621Z,8.60
2019-04-22T07:50:26.316Z,8.10
2019-04-22T07:52:49.590Z,8.57
2019-04-22T07:55:25.556Z,8.67
2019-04-22T07:57:51.802Z,8.80
2019-04-22T08:00:28.118Z,8.57
2019-04-22T08:02:59.721Z,8.27
2019-04-22T08:05:26.091Z,8.40
2019-04-22T08:07:52.484Z,7.70
2019-04-22T08:10:35.320Z,7.93
2019-04-22T08:12:57.927Z,8.03
2019-04-22T08:15:27.596Z,7.87
2019-04-22T08:18:06.920Z,7.40
2019-04-22T08:20:30.778Z,6.70
2019-04-22T08:23:04.415Z,6.90
2019-04-22T08:25:32.930Z,6.90
2019-04-22T08:28:03.055Z,7.40
2019-04-22T08:30:44.469Z,6.67
2019-04-22T08:33:13.797Z,6.63
2019-04-22T08:35:52.426Z,7.07
2019-04-22T08:38:12.021Z,6.20
2019-04-22T08:40:50.155Z,6.27
2019-04-22T08:43:24.788Z,6.57
2019-04-22T08:48:16.445Z,5.30
2019-04-22T08:50:58.707Z,5.53
2019-04-22T08:53:41.572Z,6.20
2019-04-22T08:55:58.208Z,5.72
2019-04-22T09:03:23.958Z,5.00
2019-04-22T09:08:32.591Z,4.90
2019-04-22T09:10:58.515Z,5.17
2019-04-22T09:13:30.050Z,5.37
2019-04-22T09:15:55.497Z,5.03
2019-04-22T09:18:34.500Z,5.10
2019-04-22T09:21:07.095Z,5.50
2019-04-22T09:23:30.433Z,5.45
2019-04-22T09:25:53.529Z,5.10
2019-04-22T09:28:34.515Z,5.10
2019-04-22T09:31:01.817Z,5.10
2019-04-22T09:33:27.447Z,4.90
2019-04-22T09:36:12.798Z,5.07
2019-04-22T09:41:00.000Z,5.13
2019-04-22T09:43:41.039Z,5.23
2019-04-22T09:45:58.131Z,4.67
2019-04-22T09:48:37.497Z,4.93
2019-04-22T09:51:03.539Z,4.90
2019-04-22T09:53:36.537Z,4.90
2019-04-22T09:56:08.049Z,5.30
2019-04-22T09:58:40.085Z,4.97
2019-04-22T10:03:44.952Z,5.30
2019-04-22T10:06:22.566Z,4.60
2019-04-22T10:11:23.970Z,5.30
2019-04-22T10:13:47.667Z,4.63
2019-04-22T10:16:27.189Z,4.70
2019-04-22T10:18:52.915Z,4.53
2019-04-22T10:21:27.425Z,5.30
2019-04-22T10:23:59.544Z,5.10
2019-04-22T10:26:34.889Z,5.10
2019-04-22T10:31:38.145Z,5.60
2019-04-22T10:33:53.279Z,5.30
2019-04-22T10:36:09.782Z,5.03
2019-04-22T10:38:38.360Z,4.80
2019-04-22T10:41:08.285Z,5.23
2019-04-22T10:43:39.173Z,5.33
2019-04-22T10:46:10.542Z,5.57
2019-04-22T10:48:44.162Z,5.70
2019-04-22T10:51:14.693Z,5.90
2019-04-22T10:53:44.990Z,5.87
2019-04-22T10:56:16.851Z,5.80
2019-04-22T10:58:46.680Z,5.70
2019-04-22T11:01:17.858Z,5.92
2019-04-22T11:03:46.557Z,6.47
2019-04-22T11:06:15.130Z,6.57
2019-04-22T11:08:52.362Z,6.40
2019-04-22T11:11:30.122Z,6.85
2019-04-22T11:13:45.899Z,6.30
2019-04-22T11:16:17.422Z,6.78
2019-04-22T11:18:47.441Z,6.80
2019-04-22T11:21:17.789Z,6.07
2019-04-22T11:23:46.922Z,6.00
2019-04-22T11:26:17.721Z,5.90
2019-04-22T11:28:49.595Z,6.13
2019-04-22T11:31:18.755Z,6.00
2019-04-22T11:33:52.437Z,5.80
2019-04-22T11:36:21.765Z,5.87
2019-04-22T11:38:56.465Z,5.73
2019-04-22T11:41:25.557Z,5.90
2019-04-22T11:43:54.282Z,5.90
2019-04-22T11:46:23.215Z,5.75
2019-04-22T11:48:51.974Z,5.53
2019-04-22T11:51:22.046Z,6.00
2019-04-22T11:53:52.595Z,4.87
2019-04-22T11:56:22.644Z,5.17
2019-04-22T11:58:52.951Z,5.47
2019-04-22T12:01:21.713Z,5.17
2019-04-22T12:03:51.763Z,5.47
2019-04-22T12:06:21.965Z,5.13
2019-04-22T12:08:54.199Z,5.27
2019-04-22T12:11:23.525Z,4.90
2019-04-22T12:13:55.756Z,5.00
2019-04-22T12:16:29.918Z,5.47
2019-04-22T12:19:00.871Z,5.03
2019-04-22T12:21:30.921Z,5.63
2019-04-22T12:24:01.616Z,5.20
2019-04-22T12:26:30.665Z,4.90
2019-04-22T12:29:00.283Z,4.90
2019-04-22T12:31:29.313Z,4.77
2019-04-22T12:33:59.317Z,4.53
2019-04-22T12:36:28.673Z,4.95
2019-04-22T12:38:57.820Z,4.83
2019-04-22T12:41:27.679Z,4.97
2019-04-22T12:43:57.279Z,4.83
2019-04-22T12:46:26.161Z,4.50
2019-04-22T12:48:56.264Z,4.40
2019-04-22T12:51:25.021Z,4.73
2019-04-22T12:53:55.135Z,4.60
2019-04-22T12:56:23.911Z,4.70
2019-04-22T12:58:56.306Z,4.43
2019-04-22T13:01:26.875Z,5.17
2019-04-22T13:04:02.061Z,4.30
2019-04-22T13:06:30.165Z,4.27
2019-04-22T13:09:00.036Z,4.87
2019-04-22T13:11:34.778Z,4.40
2019-04-22T13:14:05.052Z,4.43
2019-04-22T13:16:33.385Z,4.50
2019-04-22T13:19:07.370Z,4.40
2019-04-22T13:21:33.174Z,4.23
2019-04-22T13:24:04.733Z,4.70
2019-04-22T13:26:33.825Z,4.37
2019-04-22T13:29:05.199Z,4.42
2019-04-22T13:31:38.050Z,4.57
2019-04-22T13:34:13.317Z,4.33
2019-04-22T13:36:41.082Z,4.33
2019-04-22T13:39:09.055Z,5.03
2019-04-22T13:41:46.566Z,4.73
2019-04-22T13:44:09.092Z,4.95
2019-04-22T13:46:38.747Z,5.00
2019-04-22T13:49:40.542Z,4.17
2019-04-22T13:52:18.837Z,4.60
2019-04-22T13:56:56.868Z,4.17
2019-04-22T13:59:20.583Z,4.50
2019-04-22T14:01:58.844Z,4.53
2019-04-22T14:04:34.576Z,4.63
2019-04-22T14:07:00.764Z,4.40
2019-04-22T14:09:33.668Z,4.27
2019-04-22T14:12:05.722Z,4.70
2019-04-22T14:14:33.714Z,4.27
2019-04-22T14:17:04.838Z,4.40
2019-04-22T14:19:34.042Z,4.60
2019-04-22T14:22:03.966Z,4.97
2019-04-22T14:24:32.549Z,4.33
2019-04-22T14:27:17.476Z,4.53
2019-04-22T14:29:33.564Z,4.27
2019-04-22T14:32:11.361Z,4.30
2019-04-22T14:34:36.491Z,4.53
2019-04-22T14:37:07.028Z,4.62
2019-04-22T14:39:37.969Z,5.00
2019-04-22T14:42:33.445Z,4.90
2019-04-22T14:47:34.703Z,4.67
2019-04-22T14:50:09.397Z,4.65
2019-04-22T14:52:33.521Z,4.70
2019-04-22T14:54:54.079Z,4.42
2019-04-22T14:57:17.049Z,4.47
2019-04-22T14:59:46.145Z,4.77
2019-04-22T15:02:16.019Z,4.67
2019-04-22T15:04:45.902Z,4.90
2019-04-22T15:07:16.846Z,4.40
2019-04-22T15:09:46.216Z,4.60
2019-04-22T15:12:28.722Z,4.00
2019-04-22T15:14:51.178Z,4.90
2019-04-22T15:17:24.979Z,4.97
2019-04-22T15:20:03.705Z,4.60
2019-04-22T15:22:34.590Z,5.30
2019-04-22T15:25:04.871Z,5.80
2019-04-22T15:27:35.180Z,6.10
2019-04-22T15:30:05.943Z,5.97
2019-04-22T15:32:35.708Z,5.83
2019-04-22T15:35:07.223Z,6.17
2019-04-22T15:37:39.258Z,5.90
2019-04-22T15:40:08.912Z,6.63
2019-04-22T15:42:41.212Z,6.00
2019-04-22T15:45:08.836Z,6.33
2019-04-22T15:47:37.805Z,5.70
2019-04-22T15:50:08.039Z,6.40
2019-04-22T15:52:44.090Z,5.93
2019-04-22T15:55:12.507Z,5.37
2019-04-22T15:57:45.648Z,6.13
2019-04-22T16:00:29.694Z,6.00
2019-04-22T16:02:49.879Z,5.70
2019-04-22T16:05:22.507Z,5.90
2019-04-22T16:07:53.018Z,4.93
2019-04-22T16:10:23.965Z,5.17
2019-04-22T16:13:03.512Z,4.87
2019-04-22T16:15:26.767Z,5.40
2019-04-22T16:17:55.457Z,5.00
2019-04-22T16:20:30.078Z,5.00
2019-04-22T16:23:20.839Z,4.83
2019-04-22T16:25:53.379Z,4.90
2019-04-22T16:28:22.192Z,5.90
2019-04-22T16:30:53.241Z,5.33
2019-04-22T16:33:23.365Z,4.67
2019-04-22T16:35:53.128Z,4.90
2019-04-22T16:38:22.945Z,5.10
2019-04-22T16:40:54.854Z,5.00
2019-04-22T16:43:28.764Z,4.87
2019-04-22T16:45:57.966Z,4.87
2019-04-22T16:48:29.549Z,4.70
2019-04-22T16:51:02.532Z,4.17
2019-04-22T16:53:32.221Z,4.50
2019-04-22T16:56:00.705Z,4.33
2019-04-22T16:58:30.447Z,4.17
2019-04-22T17:01:02.991Z,3.87
2019-04-22T17:03:54.494Z,3.50
2019-04-22T17:06:27.548Z,4.90
2019-04-22T17:08:57.144Z,4.10
2019-04-22T17:11:25.872Z,4.50
2019-04-22T17:13:57.303Z,4.13
2019-04-22T17:16:26.120Z,4.10
2019-04-22T17:18:56.485Z,4.05
2019-04-22T17:21:25.877Z,4.30
2019-04-22T17:23:55.845Z,3.98
2019-04-22T17:26:26.504Z,4.23
2019-04-22T17:28:57.586Z,3.90
2019-04-22T17:31:26.886Z,4.10
2019-04-22T17:33:56.995Z,3.50
2019-04-22T17:36:26.523Z,3.70
2019-04-22T17:39:12.850Z,3.43
2019-04-22T17:41:45.122Z,3.50
2019-04-22T17:44:31.105Z,3.03
2019-04-22T17:46:48.342Z,3.23
2019-04-22T17:49:34.354Z,3.00
2019-04-22T17:52:17.374Z,3.45
2019-04-22T17:54:45.812Z,3.43
2019-04-22T17:57:15.368Z,3.23
2019-04-22T17:59:46.602Z,2.90
2019-04-22T18:02:15.611Z,2.90
2019-04-22T18:04:40.159Z,2.97
2019-04-22T18:07:29.849Z,3.03
2019-04-22T18:12:33.591Z,3.20
2019-04-22T18:17:30.583Z,2.90
2019-04-22T18:19:53.057Z,3.47
2019-04-22T18:22:23.107Z,3.10
2019-04-22T18:24:58.373Z,2.67
2019-04-22T18:27:49.063Z,2.90
2019-04-22T18:30:02.251Z,3.40
2019-04-22T18:32:38.084Z,3.07
2019-04-22T18:35:07.999Z,2.67
2019-04-22T18:37:42.462Z,3.03
2019-04-22T18:40:14.991Z,3.10
2019-04-22T18:42:45.690Z,2.63
2019-04-22T18:45:29.788Z,3.37
2019-04-22T18:47:38.760Z,2.70
2019-04-22T18:50:08.693Z,3.40
2019-04-22T18:52:47.965Z,3.12
2019-04-22T18:55:26.854Z,3.10
2019-04-22T18:58:03.001Z,3.07
2019-04-22T19:00:21.506Z,2.70
2019-04-22T19:02:56.836Z,3.10
2019-04-22T19:05:34.746Z,2.97
2019-04-22T19:08:18.209Z,3.00
2019-04-22T19:11:04.972Z,3.20
2019-04-22T19:13:49.005Z,2.90
2019-04-22T19:15:53.887Z,2.80
2019-04-22T19:18:27.047Z,3.07
2019-04-22T19:20:53.478Z,3.30
2019-04-22T19:23:18.043Z,3.30
2019-04-22T19:25:42.339Z,3.27
2019-04-22T19:28:31.924Z,3.57
2019-04-22T19:30:56.770Z,3.50
2019-04-22T19:33:29.823Z,3.23
2019-04-22T19:35:49.126Z,3.57
2019-04-22T19:38:16.392Z,3.40
2019-04-22T19:43:32.686Z,3.60
2019-04-22T19:46:02.043Z,4.00
2019-04-22T19:48:50.100Z,3.57
2019-04-22T19:51:12.780Z,3.90
2019-04-22T19:53:42.273Z,4.00
2019-04-22T19:56:06.151Z,3.50
2019-04-22T19:58:36.042Z,3.92
2019-04-22T20:01:16.188Z,4.17
2019-04-22T20:04:16.566Z,3.63
2019-04-22T20:06:38.126Z,3.77
2019-04-22T20:09:13.699Z,3.93
2019-04-22T20:11:43.870Z,3.40
2019-04-22T20:14:18.083Z,4.23
2019-04-22T20:16:38.119Z,3.90
2019-04-22T20:19:21.894Z,3.70
2019-04-22T20:21:50.109Z,3.40
2019-04-22T20:24:06.695Z,3.60
2019-04-22T20:26:51.326Z,3.33
2019-04-22T20:29:29.141Z,3.33
2019-04-22T20:31:56.146Z,3.37
2019-04-22T20:34:26.672Z,3.83
2019-04-22T20:37:03.709Z,3.20
2019-04-22T20:39:20.611Z,3.23
2019-04-22T20:42:03.181Z,3.67
2019-04-22T20:44:32.360Z,3.93
2019-04-22T20:46:56.136Z,3.63
2019-04-22T20:49:32.196Z,3.80
2019-04-22T20:54:33.341Z,3.87
2019-04-22T20:56:57.792Z,3.60
2019-04-22T20:59:30.122Z,3.15
2019-04-22T21:01:57.980Z,3.10
2019-04-22T21:04:24.821Z,2.93
2019-04-22T21:07:03.751Z,3.27
2019-04-22T21:09:35.522Z,2.63
2019-04-22T21:11:56.682Z,3.40
2019-04-22T21:14:32.448Z,3.03
2019-04-22T21:17:15.666Z,3.40
2019-04-22T21:19:47.975Z,3.10
2019-04-22T21:22:16.460Z,3.30
2019-04-22T21:24:42.129Z,3.37
2019-04-22T21:27:17.047Z,2.97
2019-04-22T21:29:43.544Z,3.20
2019-04-22T21:32:23.938Z,3.33
2019-04-22T21:35:06.674Z,3.10
2019-04-22T21:37:31.922Z,3.08
2019-04-22T21:39:51.831Z,3.03
2019-04-22T21:42:28.512Z,2.80
2019-04-22T21:44:55.738Z,3.17
2019-04-22T21:47:42.943Z,2.92
2019-04-22T21:50:21.359Z,3.40
2019-04-22T21:52:33.247Z,3.35
2019-04-22T21:55:13.131Z,2.87
2019-04-22T21:58:02.633Z,2.77
2019-04-22T22:03:06.554Z,3.00
2019-04-22T22:05:28.915Z,3.02
2019-04-22T22:07:55.854Z,2.80
2019-04-22T22:10:40.259Z,2.90
2019-04-22T22:13:16.980Z,3.00
2019-04-22T22:15:49.292Z,2.93
2019-04-22T22:18:12.271Z,3.10
2019-04-22T22:20:53.782Z,3.20
2019-04-22T22:23:25.234Z,3.43
2019-04-22T22:25:47.697Z,3.37
2019-04-22T22:28:41.690Z,3.90
2019-04-22T22:34:04.106Z,3.47
2019-04-22T22:36:26.752Z,3.20
2019-04-22T22:38:54.030Z,2.93
2019-04-22T22:41:15.995Z,3.00
2019-04-22T22:43:50.525Z,3.37
2019-04-22T22:46:29.232Z,3.00
2019-04-22T22:49:09.857Z,3.63
2019-04-22T22:51:51.388Z,3.30
2019-04-22T22:54:12.069Z,3.20
2019-04-22T22:56:46.901Z,3.02
2019-04-22T22:59:10.865Z,3.70
2019-04-22T23:01:39.586Z,3.20
2019-04-22T23:04:16.497Z,2.57
2019-04-22T23:06:45.504Z,2.80
2019-04-22T23:09:14.516Z,3.10
2019-04-22T23:14:18.376Z,2.87
2019-04-22T23:16:33.922Z,2.50
2019-04-22T23:19:04.488Z,2.80
2019-04-22T23:21:39.737Z,2.65
2019-04-22T23:24:21.291Z,2.43
2019-04-22T23:26:53.974Z,2.20
2019-04-22T23:29:25.333Z,2.23
2019-04-22T23:31:59.702Z,3.10
2019-04-22T23:34:32.866Z,2.33
2019-04-22T23:37:10.391Z,2.70
2019-04-22T23:39:54.755Z,2.60
2019-04-22T23:42:23.526Z,2.43
2019-04-22T23:44:56.613Z,1.90
2019-04-22T23:47:17.706Z,2.50
2019-04-22T23:49:55.307Z,2.63
2019-04-22T23:52:24.361Z,1.90
2019-04-22T23:55:04.942Z,2.33
2019-04-22T23:57:33.079Z,2.60
